Time;durP1;ratioP1;P1;durP2;ratioP2;P2;SDS_P1;SDS_P2;PMS_P1;PMS_P2;Temp;Humidity;BMP_temperature;BMP_pressure;BME280_temperature;BME280_humidity;BME280_pressure;Samples;Min_cycle;Max_cycle;Signal;HPM_P1;HPM_P2
2021/08/18 00:00:59;;;;;;;1.30;0.40;;;23.30;70.20;;;;;;5052531;28;20272;-69
2021/08/18 00:03:28;;;;;;;0.00;0.00;;;23.30;70.10;;;;;;5060286;28;20253;-69
2021/08/18 00:05:55;;;;;;;0.00;0.00;;;23.20;70.20;;;;;;5061248;28;20639;-69
2021/08/18 00:08:22;;;;;;;0.00;0.00;;;23.20;70.40;;;;;;5061460;28;20224;-69
2021/08/18 00:10:49;;;;;;;0.00;0.00;;;23.10;70.70;;;;;;5063465;28;20565;-69
2021/08/18 00:13:18;;;;;;;0.10;0.10;;;23.10;70.90;;;;;;5061653;28;20542;-69
2021/08/18 00:15:45;;;;;;;0.10;0.10;;;23.00;71.00;;;;;;5061580;28;20272;-69
2021/08/18 00:18:12;;;;;;;0.00;0.00;;;23.00;71.10;;;;;;5064104;28;20252;-69
2021/08/18 00:20:39;;;;;;;0.10;0.10;;;23.00;71.10;;;;;;5061497;28;20238;-69
2021/08/18 00:23:06;;;;;;;0.00;0.00;;;23.00;71.20;;;;;;5061640;28;20272;-69
2021/08/18 00:25:34;;;;;;;0.27;0.27;;;23.00;71.40;;;;;;5063249;28;20229;-69
2021/08/18 00:28:01;;;;;;;0.00;0.00;;;23.00;71.80;;;;;;5070092;28;20211;-69
2021/08/18 00:30:28;;;;;;;0.03;0.03;;;23.00;72.00;;;;;;5062499;28;20218;-69
2021/08/18 00:32:55;;;;;;;0.10;0.10;;;22.90;72.20;;;;;;5062600;28;20250;-69
2021/08/18 00:35:23;;;;;;;0.10;0.10;;;22.90;72.40;;;;;;5062451;28;20291;-69
2021/08/18 00:37:50;;;;;;;0.27;0.27;;;22.80;72.80;;;;;;5061601;28;20222;-69
2021/08/18 00:40:17;;;;;;;0.00;0.00;;;22.90;73.00;;;;;;5063436;28;20291;-69
2021/08/18 00:42:46;;;;;;;0.20;0.20;;;22.90;73.40;;;;;;5062073;28;20661;-69
2021/08/18 00:45:14;;;;;;;0.00;0.00;;;22.80;73.70;;;;;;5060745;28;20233;-69
2021/08/18 00:47:42;;;;;;;0.10;0.10;;;22.80;73.90;;;;;;5062539;28;20659;-69
2021/08/18 00:50:12;;;;;;;0.10;0.10;;;22.70;74.00;;;;;;5063394;28;20214;-69
2021/08/18 00:52:39;;;;;;;1.13;1.13;;;22.70;74.00;;;;;;5064133;28;20217;-69
2021/08/18 00:55:14;;;;;;;0.00;0.00;;;22.70;74.10;;;;;;5062080;28;20217;-69
2021/08/18 00:57:42;;;;;;;0.30;0.30;;;22.70;74.20;;;;;;5062997;28;20899;-70
2021/08/18 01:00:12;;;;;;;0.10;0.10;;;22.70;74.50;;;;;;5059642;28;20282;-70
2021/08/18 01:02:43;;;;;;;0.27;0.27;;;22.60;74.50;;;;;;5062781;28;20218;-70
2021/08/18 01:05:18;;;;;;;0.30;0.30;;;22.60;74.40;;;;;;5069387;28;20211;-70
2021/08/18 01:07:47;;;;;;;0.10;0.10;;;22.60;74.40;;;;;;5060257;28;20225;-71
2021/08/18 01:10:18;;;;;;;0.00;0.00;;;22.60;74.60;;;;;;5061765;28;20218;-71
2021/08/18 01:12:45;;;;;;;0.10;0.10;;;22.50;74.70;;;;;;5062898;28;20682;-71
2021/08/18 01:15:15;;;;;;;0.70;0.70;;;22.50;74.60;;;;;;5060674;28;20221;-71
2021/08/18 01:17:44;;;;;;;0.03;0.03;;;22.40;74.60;;;;;;5061174;28;20300;-71
2021/08/18 01:20:16;;;;;;;0.07;0.07;;;22.40;74.80;;;;;;5062754;28;20743;-71
2021/08/18 01:22:44;;;;;;;0.00;0.00;;;22.30;75.30;;;;;;5062032;28;20214;-71
2021/08/18 01:25:12;;;;;;;0.63;0.63;;;22.30;74.50;;;;;;5060095;28;20655;-71
2021/08/18 01:27:46;;;;;;;0.00;0.00;;;22.30;74.20;;;;;;5061741;28;20529;-70
2021/08/18 01:30:16;;;;;;;0.00;0.00;;;22.30;73.70;;;;;;5062618;28;20274;-70
2021/08/18 01:32:50;;;;;;;0.00;0.00;;;22.20;73.40;;;;;;5065207;28;20318;-70
2021/08/18 01:35:21;;;;;;;0.43;0.43;;;22.20;73.40;;;;;;5062737;28;20219;-70
2021/08/18 01:37:49;;;;;;;0.83;0.83;;;22.10;73.50;;;;;;5061354;28;20706;-70
2021/08/18 01:40:16;;;;;;;0.30;0.30;;;22.10;73.50;;;;;;5059835;28;20234;-70
2021/08/18 01:42:43;;;;;;;0.10;0.10;;;22.00;73.50;;;;;;5069227;28;20210;-70
2021/08/18 01:45:18;;;;;;;0.10;0.10;;;21.90;73.70;;;;;;5063789;28;20221;-70
2021/08/18 01:47:45;;;;;;;0.00;0.00;;;21.80;73.80;;;;;;5064408;28;20213;-70
2021/08/18 01:50:11;;;;;;;0.10;0.10;;;21.80;74.20;;;;;;5066614;28;20209;-70
2021/08/18 01:52:39;;;;;;;0.10;0.10;;;21.70;74.20;;;;;;5073912;28;20256;-70
2021/08/18 01:55:06;;;;;;;0.10;0.10;;;21.70;74.30;;;;;;5063937;28;20283;-71
2021/08/18 01:57:33;;;;;;;0.00;0.00;;;21.70;74.60;;;;;;5064551;28;20213;-71
2021/08/18 02:00:00;;;;;;;0.00;0.00;;;21.60;74.70;;;;;;5066255;28;20294;-71
2021/08/18 02:02:29;;;;;;;0.20;0.20;;;21.60;74.80;;;;;;5066314;28;20730;-71
2021/08/18 02:04:56;;;;;;;0.10;0.10;;;21.50;75.00;;;;;;5067291;28;20661;-71
2021/08/18 02:07:24;;;;;;;0.00;0.00;;;21.50;75.00;;;;;;5065261;28;20251;-71
2021/08/18 02:09:51;;;;;;;0.10;0.10;;;21.50;75.10;;;;;;5064153;28;20244;-70
2021/08/18 02:12:18;;;;;;;0.10;0.10;;;21.50;75.30;;;;;;5066875;28;20627;-70
2021/08/18 02:14:46;;;;;;;0.00;0.00;;;21.40;75.50;;;;;;5063722;28;20210;-70
2021/08/18 02:17:13;;;;;;;0.10;0.10;;;21.40;75.80;;;;;;5064935;28;20221;-70
2021/08/18 02:19:40;;;;;;;0.00;0.00;;;21.30;75.90;;;;;;5066045;28;20210;-70
2021/08/18 02:22:07;;;;;;;0.10;0.10;;;21.30;76.00;;;;;;5072290;28;20213;-71
2021/08/18 02:24:34;;;;;;;0.10;0.10;;;21.30;76.20;;;;;;5064414;28;20644;-71
2021/08/18 02:27:01;;;;;;;0.73;0.73;;;21.30;76.30;;;;;;5063060;28;20215;-71
2021/08/18 02:29:28;;;;;;;0.10;0.10;;;21.30;76.20;;;;;;5065907;28;20217;-71
2021/08/18 02:31:55;;;;;;;0.17;0.17;;;21.30;76.30;;;;;;5065512;28;20249;-71
2021/08/18 02:34:22;;;;;;;0.00;0.00;;;21.30;76.30;;;;;;5067234;28;20586;-70
2021/08/18 02:36:49;;;;;;;0.00;0.00;;;21.30;76.40;;;;;;5066311;28;20202;-70
2021/08/18 02:39:16;;;;;;;1.07;1.07;;;21.30;77.00;;;;;;5064586;28;20941;-70
2021/08/18 02:41:43;;;;;;;0.10;0.10;;;21.30;76.40;;;;;;5065524;28;20604;-70
2021/08/18 02:44:10;;;;;;;0.00;0.00;;;21.30;76.40;;;;;;5065910;28;20210;-70
2021/08/18 02:46:37;;;;;;;0.10;0.10;;;21.30;76.30;;;;;;5063761;28;20218;-70
2021/08/18 02:49:04;;;;;;;0.20;0.20;;;21.30;76.30;;;;;;5064107;28;20198;-70
2021/08/18 02:51:31;;;;;;;0.00;0.00;;;21.30;76.10;;;;;;5053678;28;20218;-70
2021/08/18 02:53:57;;;;;;;0.00;0.00;;;21.30;76.00;;;;;;5053992;28;20670;-70
2021/08/18 02:56:24;;;;;;;0.03;0.03;;;21.20;75.90;;;;;;5060520;28;20517;-70
2021/08/18 02:58:51;;;;;;;0.10;0.10;;;21.20;75.80;;;;;;5062568;28;20625;-70
2021/08/18 03:01:18;;;;;;;0.07;0.07;;;21.20;75.80;;;;;;5063332;28;20757;-70
2021/08/18 03:03:45;;;;;;;0.00;0.00;;;21.20;75.60;;;;;;5065686;28;20228;-70
2021/08/18 03:06:12;;;;;;;0.00;0.00;;;21.10;75.20;;;;;;5063307;28;20202;-70
2021/08/18 03:08:39;;;;;;;0.00;0.00;;;21.10;74.80;;;;;;5062631;28;20271;-70
2021/08/18 03:11:06;;;;;;;0.03;0.03;;;21.00;74.80;;;;;;5064916;28;20222;-70
2021/08/18 03:13:33;;;;;;;0.00;0.00;;;21.00;74.40;;;;;;5063762;28;20218;-70
2021/08/18 03:16:00;;;;;;;0.00;0.00;;;20.90;74.30;;;;;;5063537;28;20218;-70
2021/08/18 03:18:29;;;;;;;0.00;0.00;;;20.90;74.30;;;;;;5062108;28;20245;-70
2021/08/18 03:20:57;;;;;;;0.03;0.03;;;20.90;74.20;;;;;;5062953;28;20241;-70
2021/08/18 03:23:25;;;;;;;0.10;0.10;;;20.90;73.90;;;;;;5072110;28;20687;-70
2021/08/18 03:25:52;;;;;;;0.30;0.30;;;20.90;73.50;;;;;;5061512;28;20591;-70
2021/08/18 03:28:19;;;;;;;0.10;0.10;;;20.90;73.30;;;;;;5063866;28;20228;-70
2021/08/18 03:30:46;;;;;;;0.10;0.10;;;20.80;73.60;;;;;;5063937;28;20589;-70
2021/08/18 03:33:13;;;;;;;0.00;0.00;;;20.80;73.20;;;;;;5061548;28;20246;-70
2021/08/18 03:35:40;;;;;;;0.00;0.00;;;20.80;73.10;;;;;;5063124;28;20678;-71
2021/08/18 03:38:06;;;;;;;0.00;0.00;;;20.80;73.00;;;;;;5064286;28;20251;-71
2021/08/18 03:40:33;;;;;;;0.10;0.10;;;20.80;72.90;;;;;;5064265;28;20230;-71
2021/08/18 03:43:01;;;;;;;0.10;0.10;;;20.80;72.80;;;;;;5063399;28;20220;-70
2021/08/18 03:45:29;;;;;;;0.20;0.20;;;20.70;72.70;;;;;;5071851;28;20214;-70
2021/08/18 03:47:56;;;;;;;0.00;0.00;;;20.70;72.40;;;;;;5064469;28;20216;-70
2021/08/18 03:50:23;;;;;;;0.00;0.00;;;20.70;72.30;;;;;;5062721;28;20214;-70
2021/08/18 03:52:50;;;;;;;0.10;0.10;;;20.60;72.30;;;;;;5061567;28;20539;-70
2021/08/18 03:55:17;;;;;;;0.00;0.00;;;20.60;72.20;;;;;;5063932;28;20249;-70
2021/08/18 03:57:44;;;;;;;0.10;0.10;;;20.60;72.00;;;;;;5070837;28;20628;-70
2021/08/18 04:00:13;;;;;;;0.10;0.10;;;20.50;72.00;;;;;;5061063;28;20563;-70
2021/08/18 04:02:42;;;;;;;0.00;0.00;;;20.50;72.20;;;;;;5063565;28;20206;-70
2021/08/18 04:05:10;;;;;;;0.10;0.10;;;20.40;71.80;;;;;;5063366;28;20206;-70
2021/08/18 04:07:37;;;;;;;0.10;0.10;;;20.40;71.70;;;;;;5063264;28;20217;-70
2021/08/18 04:10:05;;;;;;;0.10;0.10;;;20.40;71.40;;;;;;5070408;28;20218;-70
2021/08/18 04:12:50;;;;;;;0.00;0.00;;;20.40;71.10;;;;;;5060360;28;20648;-70
2021/08/18 04:15:19;;;;;;;0.30;0.30;;;20.40;70.80;;;;;;5063633;28;20228;-70
2021/08/18 04:17:46;;;;;;;0.20;0.20;;;20.40;70.40;;;;;;5061364;28;20214;-70
2021/08/18 04:20:13;;;;;;;0.10;0.10;;;20.40;70.10;;;;;;5062059;28;20217;-70
2021/08/18 04:22:41;;;;;;;0.00;0.00;;;20.30;69.70;;;;;;5063543;28;20213;-70
2021/08/18 04:25:13;;;;;;;0.10;0.10;;;20.30;69.80;;;;;;5061112;28;20352;-70
2021/08/18 04:27:41;;;;;;;0.00;0.00;;;20.30;69.50;;;;;;5061069;28;20218;-70
2021/08/18 04:30:10;;;;;;;0.00;0.00;;;20.30;69.50;;;;;;5063446;28;20271;-70
2021/08/18 04:32:37;;;;;;;0.00;0.00;;;20.30;69.40;;;;;;5062011;28;20699;-70
2021/08/18 04:35:07;;;;;;;0.30;0.30;;;20.30;69.20;;;;;;5061021;28;20232;-70
2021/08/18 04:37:35;;;;;;;0.00;0.00;;;20.30;68.90;;;;;;5069393;28;20217;-70
2021/08/18 04:40:07;;;;;;;0.37;0.37;;;20.30;68.80;;;;;;5064379;28;20208;-70
2021/08/18 04:42:41;;;;;;;0.00;0.00;;;20.30;68.60;;;;;;5060716;28;20241;-70
2021/08/18 04:45:10;;;;;;;0.00;0.00;;;20.30;68.40;;;;;;5060804;28;20217;-70
2021/08/18 04:47:38;;;;;;;0.10;0.10;;;20.30;68.10;;;;;;5060749;28;20210;-70
2021/08/18 04:50:06;;;;;;;0.10;0.10;;;20.30;68.10;;;;;;5061539;28;20229;-70
2021/08/18 04:52:33;;;;;;;0.10;0.10;;;20.30;67.90;;;;;;5070292;28;20279;-70
2021/08/18 04:55:01;;;;;;;0.10;0.10;;;20.30;68.00;;;;;;5061226;28;20644;-71
2021/08/18 04:57:27;;;;;;;0.10;0.10;;;20.40;67.90;;;;;;5060762;28;20276;-71
2021/08/18 04:59:54;;;;;;;0.00;0.00;;;20.40;67.70;;;;;;5063043;28;20217;-70
2021/08/18 05:02:25;;;;;;;0.00;0.00;;;20.50;67.70;;;;;;5061987;28;20556;-70
2021/08/18 05:04:52;;;;;;;0.10;0.10;;;20.60;67.40;;;;;;5059769;28;20240;-70
2021/08/18 05:07:19;;;;;;;0.10;0.10;;;20.60;67.30;;;;;;5064754;28;20279;-70
2021/08/18 05:09:46;;;;;;;0.20;0.20;;;20.70;67.10;;;;;;5061968;28;20262;-70
2021/08/18 05:12:14;;;;;;;0.10;0.10;;;20.70;67.00;;;;;;5069903;28;20213;-70
2021/08/18 05:14:41;;;;;;;0.00;0.00;;;20.80;66.80;;;;;;5068969;28;20694;-70
2021/08/18 05:17:08;;;;;;;0.03;0.03;;;20.90;67.50;;;;;;5060187;28;20620;-70
2021/08/18 05:19:35;;;;;;;0.00;0.00;;;20.90;66.50;;;;;;5064738;28;20550;-70
2021/08/18 05:22:02;;;;;;;0.10;0.10;;;21.00;66.40;;;;;;5072510;28;20566;-70
2021/08/18 05:24:30;;;;;;;0.17;0.17;;;21.00;65.90;;;;;;5065432;28;20223;-70
2021/08/18 05:26:57;;;;;;;0.00;0.00;;;21.10;65.60;;;;;;5074264;28;20217;-70
2021/08/18 05:29:24;;;;;;;0.00;0.00;;;21.20;65.20;;;;;;5066926;28;20274;-70
2021/08/18 05:31:51;;;;;;;0.10;0.10;;;21.40;65.00;;;;;;5065513;28;20237;-70
2021/08/18 05:34:18;;;;;;;0.10;0.10;;;21.70;64.50;;;;;;5063130;28;20263;-70
2021/08/18 05:36:45;;;;;;;0.00;0.00;;;22.00;63.00;;;;;;5065928;28;20213;-71
2021/08/18 05:39:12;;;;;;;7.30;2.63;;;22.20;62.80;;;;;;5066046;28;20290;-70
2021/08/18 05:41:39;;;;;;;0.00;0.00;;;22.20;62.60;;;;;;5066747;28;20709;-70
2021/08/18 05:44:06;;;;;;;0.07;0.07;;;22.20;62.10;;;;;;5064788;28;20222;-70
2021/08/18 05:46:33;;;;;;;0.10;0.10;;;22.30;62.00;;;;;;5063258;28;20218;-73
2021/08/18 05:49:00;;;;;;;1.43;1.33;;;22.30;61.70;;;;;;5066475;28;20213;-70
2021/08/18 05:51:27;;;;;;;0.10;0.10;;;22.30;61.80;;;;;;5064420;28;20214;-70
2021/08/18 05:53:54;;;;;;;0.00;0.00;;;22.30;61.70;;;;;;5064356;28;20736;-70
2021/08/18 05:56:21;;;;;;;0.20;0.20;;;22.20;61.90;;;;;;5066194;28;20271;-70
2021/08/18 05:58:48;;;;;;;0.10;0.10;;;22.20;62.00;;;;;;5064539;28;20264;-70
2021/08/18 06:01:15;;;;;;;0.00;0.00;;;22.20;62.40;;;;;;5063767;28;20282;-70
2021/08/18 06:03:44;;;;;;;0.00;0.00;;;22.20;62.40;;;;;;5066446;28;20221;-70
2021/08/18 06:06:12;;;;;;;0.00;0.00;;;22.30;62.30;;;;;;5064476;28;20218;-70
2021/08/18 06:08:39;;;;;;;0.07;0.07;;;22.30;62.40;;;;;;5063642;28;20214;-70
2021/08/18 06:11:06;;;;;;;0.00;0.00;;;22.30;62.30;;;;;;5064489;28;20424;-70
2021/08/18 06:13:33;;;;;;;0.00;0.00;;;22.40;62.40;;;;;;5064845;28;20267;-70
2021/08/18 06:16:00;;;;;;;0.20;0.20;;;22.50;62.50;;;;;;5065829;28;20706;-70
2021/08/18 06:18:28;;;;;;;0.00;0.00;;;22.60;62.20;;;;;;5063798;28;20656;-70
2021/08/18 06:20:55;;;;;;;1.27;0.97;;;22.70;61.70;;;;;;5063008;28;20218;-70
2021/08/18 06:23:24;;;;;;;0.00;0.00;;;22.70;61.80;;;;;;5065969;28;20210;-70
2021/08/18 06:25:52;;;;;;;0.00;0.00;;;22.80;61.30;;;;;;5064022;28;20222;-70
2021/08/18 06:28:20;;;;;;;0.03;0.03;;;23.00;61.20;;;;;;5063204;28;20254;-70
2021/08/18 06:30:47;;;;;;;0.20;0.20;;;23.20;60.70;;;;;;5061519;28;20207;-70
2021/08/18 06:33:14;;;;;;;0.00;0.00;;;23.30;60.40;;;;;;5064531;28;20245;-70
2021/08/18 06:35:41;;;;;;;0.50;0.50;;;23.30;59.80;;;;;;5065018;28;20217;-70
2021/08/18 06:38:09;;;;;;;0.00;0.00;;;23.20;60.00;;;;;;5065757;28;20217;-70
2021/08/18 06:40:37;;;;;;;0.00;0.00;;;23.30;59.80;;;;;;5065673;28;20206;-70
2021/08/18 06:43:04;;;;;;;0.00;0.00;;;23.30;60.00;;;;;;5062296;28;20614;-70
2021/08/18 06:45:31;;;;;;;0.00;0.00;;;23.30;60.30;;;;;;5063241;28;20280;-70
2021/08/18 06:47:58;;;;;;;0.00;0.00;;;23.30;60.40;;;;;;5063416;28;20698;-70
2021/08/18 06:50:26;;;;;;;0.00;0.00;;;23.40;60.20;;;;;;5069995;28;20279;-70
2021/08/18 06:52:52;;;;;;;0.00;0.00;;;23.50;59.50;;;;;;5065021;28;20218;-71
2021/08/18 06:55:20;;;;;;;0.00;0.00;;;23.60;60.00;;;;;;5064410;28;20699;-71
2021/08/18 06:57:47;;;;;;;0.10;0.10;;;23.60;58.90;;;;;;5070071;28;20222;-71
2021/08/18 07:00:14;;;;;;;0.00;0.00;;;23.40;59.20;;;;;;5064826;28;20247;-71
2021/08/18 07:02:48;;;;;;;0.10;0.10;;;23.40;59.90;;;;;;5064201;28;20320;-71
2021/08/18 07:05:18;;;;;;;0.00;0.00;;;23.60;60.00;;;;;;5063072;28;20210;-71
2021/08/18 07:07:46;;;;;;;0.00;0.00;;;24.00;59.10;;;;;;5062096;28;20206;-71
2021/08/18 07:10:15;;;;;;;0.00;0.00;;;24.40;57.80;;;;;;5072779;28;20553;-70
2021/08/18 07:12:43;;;;;;;0.00;0.00;;;24.60;56.90;;;;;;5065298;28;20218;-70
2021/08/18 07:15:10;;;;;;;0.00;0.00;;;24.80;56.40;;;;;;5062658;28;20221;-71
2021/08/18 07:17:37;;;;;;;0.00;0.00;;;24.90;56.20;;;;;;5063987;28;20686;-71
2021/08/18 07:20:05;;;;;;;0.10;0.10;;;24.90;55.90;;;;;;5063764;28;20226;-71
2021/08/18 07:22:32;;;;;;;0.10;0.10;;;25.00;56.70;;;;;;5062431;28;20705;-71
2021/08/18 07:24:59;;;;;;;0.00;0.00;;;25.20;56.00;;;;;;5064532;28;20216;-70
2021/08/18 07:27:27;;;;;;;0.03;0.03;;;25.30;55.80;;;;;;5071670;28;20214;-71
2021/08/18 07:29:56;;;;;;;0.00;0.00;;;25.30;55.20;;;;;;5062181;28;20202;-70
2021/08/18 07:32:26;;;;;;;0.10;0.10;;;25.20;55.90;;;;;;5063184;28;20255;-71
2021/08/18 07:34:53;;;;;;;0.10;0.10;;;25.20;56.20;;;;;;5064400;28;20229;-71
2021/08/18 07:37:20;;;;;;;0.10;0.10;;;25.30;56.00;;;;;;5061547;28;20245;-71
2021/08/18 07:39:46;;;;;;;0.00;0.00;;;25.50;55.30;;;;;;5064993;28;20263;-71
2021/08/18 07:42:14;;;;;;;0.00;0.00;;;25.70;55.40;;;;;;5061568;28;20272;-71
2021/08/18 07:44:41;;;;;;;0.00;0.00;;;25.90;54.80;;;;;;5064549;28;20221;-71
2021/08/18 07:47:09;;;;;;;0.00;0.00;;;25.90;54.90;;;;;;5062819;28;20232;-71
2021/08/18 07:49:36;;;;;;;0.00;0.00;;;25.80;55.00;;;;;;5061811;28;20632;-71
2021/08/18 07:52:05;;;;;;;0.00;0.00;;;25.80;55.30;;;;;;5064135;28;20278;-71
2021/08/18 07:54:32;;;;;;;0.00;0.00;;;26.00;55.20;;;;;;5071495;28;20259;-71
2021/08/18 07:57:00;;;;;;;0.00;0.00;;;26.20;54.40;;;;;;5061171;28;20218;-71
2021/08/18 07:59:27;;;;;;;0.00;0.00;;;26.50;54.40;;;;;;5070359;28;20224;-71
2021/08/18 08:01:54;;;;;;;0.00;0.00;;;26.80;53.90;;;;;;5071012;28;20234;-71
2021/08/18 08:04:21;;;;;;;0.00;0.00;;;27.10;53.20;;;;;;5061153;28;20206;-71
2021/08/18 08:06:49;;;;;;;0.17;0.17;;;27.40;53.00;;;;;;5069957;28;20214;-71
2021/08/18 08:09:16;;;;;;;0.10;0.10;;;27.80;52.20;;;;;;5061771;28;20214;-69
2021/08/18 08:11:43;;;;;;;0.00;0.00;;;28.10;51.90;;;;;;5064420;28;20560;-70
2021/08/18 08:14:10;;;;;;;0.00;0.00;;;28.40;50.70;;;;;;5063078;28;20228;-70
2021/08/18 08:16:38;;;;;;;0.00;0.00;;;28.50;50.10;;;;;;5063326;28;20214;-69
2021/08/18 08:19:05;;;;;;;0.00;0.00;;;28.50;50.00;;;;;;5060243;28;20233;-69
2021/08/18 08:21:32;;;;;;;0.00;0.00;;;28.60;50.10;;;;;;5062424;28;20550;-69
2021/08/18 08:23:59;;;;;;;0.00;0.00;;;28.70;49.90;;;;;;5063806;28;20267;-69
2021/08/18 08:26:27;;;;;;;0.00;0.00;;;28.80;49.70;;;;;;5052751;28;20226;-69
2021/08/18 08:28:54;;;;;;;0.00;0.00;;;28.80;49.40;;;;;;5052349;28;20210;-69
2021/08/18 08:31:21;;;;;;;1.50;0.77;;;28.80;49.30;;;;;;5059230;28;20264;-69
2021/08/18 08:33:48;;;;;;;0.00;0.00;;;28.80;49.30;;;;;;5060239;28;20272;-69
2021/08/18 08:36:15;;;;;;;0.00;0.00;;;28.70;49.20;;;;;;5061506;28;20221;-69
2021/08/18 08:38:42;;;;;;;0.77;0.77;;;28.40;49.70;;;;;;5071303;28;20218;-69
2021/08/18 08:41:09;;;;;;;0.10;0.10;;;28.50;49.60;;;;;;5069526;28;20213;-69
2021/08/18 08:43:40;;;;;;;0.00;0.00;;;28.50;49.40;;;;;;5062584;28;20238;-69
2021/08/18 08:46:07;;;;;;;0.07;0.07;;;28.50;49.10;;;;;;5060389;28;20649;-69
2021/08/18 08:48:37;;;;;;;0.00;0.00;;;28.20;49.50;;;;;;5062460;28;20213;-69
2021/08/18 08:51:05;;;;;;;0.00;0.00;;;27.90;50.60;;;;;;5063042;28;20249;-69
2021/08/18 08:53:33;;;;;;;0.10;0.10;;;28.00;51.20;;;;;;5059650;28;20272;-69
2021/08/18 08:56:01;;;;;;;0.87;0.87;;;28.20;51.50;;;;;;5060197;28;20218;-69
2021/08/18 08:58:28;;;;;;;0.20;0.20;;;28.50;50.70;;;;;;5063319;28;20260;-69
2021/08/18 09:00:55;;;;;;;0.00;0.00;;;28.70;49.70;;;;;;5060761;28;20510;-70
2021/08/18 09:03:24;;;;;;;0.00;0.00;;;28.70;49.70;;;;;;5060291;28;20325;-70
2021/08/18 09:05:56;;;;;;;0.97;0.97;;;28.60;50.00;;;;;;5063286;28;20210;-70
2021/08/18 09:08:24;;;;;;;0.10;0.10;;;28.40;50.30;;;;;;5062155;28;20726;-69
2021/08/18 09:11:14;;;;;;;0.33;0.33;;;28.20;50.50;;;;;;5059905;28;20233;-69
2021/08/18 09:13:53;;;;;;;0.10;0.10;;;28.30;51.00;;;;;;5063537;28;20213;-70
2021/08/18 09:16:29;;;;;;;0.00;0.00;;;28.40;50.30;;;;;;5070437;28;20217;-69
2021/08/18 09:18:56;;;;;;;0.00;0.00;;;28.40;50.80;;;;;;5061889;28;20279;-69
2021/08/18 09:21:38;;;;;;;0.00;0.00;;;28.70;50.70;;;;;;5059775;28;20214;-69
2021/08/18 09:24:11;;;;;;;0.00;0.00;;;29.10;50.40;;;;;;5063186;28;20255;-69
2021/08/18 09:26:39;;;;;;;0.10;0.10;;;29.60;49.30;;;;;;5076665;28;20577;-69
2021/08/18 09:29:06;;;;;;;0.07;0.07;;;29.70;48.60;;;;;;5060753;28;20233;-69
2021/08/18 09:31:33;;;;;;;0.00;0.00;;;29.80;48.10;;;;;;5062378;28;20210;-69
2021/08/18 09:34:00;;;;;;;0.10;0.10;;;29.90;48.00;;;;;;5061131;28;20253;-69
2021/08/18 09:36:33;;;;;;;0.10;0.10;;;29.70;48.30;;;;;;5060368;28;20581;-69
2021/08/18 09:39:20;;;;;;;3.20;0.50;;;29.80;48.60;;;;;;5065739;28;20272;-69
2021/08/18 09:41:47;;;;;;;0.07;0.07;;;30.00;48.50;;;;;;5059813;28;20214;-69
2021/08/18 09:44:14;;;;;;;0.00;0.00;;;30.20;48.00;;;;;;5060586;28;20218;-69
2021/08/18 09:46:42;;;;;;;0.00;0.00;;;30.30;47.60;;;;;;5063214;28;20725;-69
2021/08/18 09:49:10;;;;;;;3.30;0.40;;;30.50;47.50;;;;;;5061980;28;20214;-69
2021/08/18 09:51:43;;;;;;;0.03;0.03;;;30.60;47.20;;;;;;5062172;28;20287;-69
2021/08/18 09:54:13;;;;;;;0.00;0.00;;;30.70;47.20;;;;;;5061069;28;20233;-69
2021/08/18 09:56:42;;;;;;;0.20;0.20;;;31.00;47.10;;;;;;5059651;28;20222;-69
2021/08/18 09:59:10;;;;;;;0.00;0.00;;;31.40;46.10;;;;;;5060228;28;20271;-69
2021/08/18 10:01:39;;;;;;;0.10;0.10;;;31.60;45.70;;;;;;5060305;28;20238;-69
2021/08/18 10:04:07;;;;;;;0.10;0.10;;;31.60;45.40;;;;;;5062634;28;20255;-69
2021/08/18 10:06:35;;;;;;;0.47;0.47;;;31.60;45.00;;;;;;5063459;28;20206;-69
2021/08/18 10:09:03;;;;;;;0.10;0.10;;;31.70;44.70;;;;;;5064392;28;20294;-69
2021/08/18 10:11:30;;;;;;;0.00;0.00;;;31.80;44.70;;;;;;5066605;28;20572;-69
2021/08/18 10:13:57;;;;;;;0.00;0.00;;;31.90;45.00;;;;;;5065055;28;20640;-69
2021/08/18 10:16:24;;;;;;;0.00;0.00;;;32.10;44.10;;;;;;5062307;28;20210;-69
2021/08/18 10:18:57;;;;;;;0.03;0.03;;;32.30;44.20;;;;;;5063287;28;20221;-69
2021/08/18 10:21:27;;;;;;;0.00;0.00;;;32.60;43.50;;;;;;5062825;28;20218;-69
2021/08/18 10:23:59;;;;;;;7.20;1.23;;;32.40;41.80;;;;;;5064200;28;20230;-71
2021/08/18 10:26:37;;;;;;;0.00;0.00;;;31.70;43.00;;;;;;5070486;28;20556;-70
2021/08/18 10:29:19;;;;;;;0.00;0.00;;;31.20;44.60;;;;;;5063581;28;20214;-68
2021/08/18 10:31:47;;;;;;;0.00;0.00;;;31.20;44.30;;;;;;5063287;28;20684;-68
2021/08/18 10:34:23;;;;;;;0.07;0.07;;;31.60;44.10;;;;;;5063574;28;20211;-68
2021/08/18 10:36:54;;;;;;;0.13;0.13;;;31.90;43.30;;;;;;5061789;28;20651;-68
2021/08/18 10:39:21;;;;;;;0.00;0.00;;;32.10;43.20;;;;;;5065669;28;20214;-68
2021/08/18 10:42:13;;;;;;;0.10;0.10;;;32.30;41.80;;;;;;5071909;28;20216;-68
2021/08/18 10:44:47;;;;;;;5.83;0.87;;;32.30;41.80;;;;;;5069370;28;20283;-68
2021/08/18 10:47:20;;;;;;;0.00;0.00;;;32.20;41.30;;;;;;5062443;28;20259;-68
2021/08/18 10:49:57;;;;;;;0.00;0.00;;;32.00;41.10;;;;;;5063885;28;20218;-68
2021/08/18 10:52:30;;;;;;;0.00;0.00;;;31.90;42.10;;;;;;5062931;28;20683;-68
2021/08/18 10:55:08;;;;;;;0.10;0.10;;;32.00;42.20;;;;;;5062623;28;20280;-68
2021/08/18 10:57:39;;;;;;;0.00;0.00;;;32.20;42.00;;;;;;5064309;28;20214;-69
2021/08/18 11:00:17;;;;;;;0.10;0.10;;;32.10;40.30;;;;;;5061645;28;20226;-68
2021/08/18 11:02:50;;;;;;;0.00;0.00;;;32.10;39.60;;;;;;5069737;28;20638;-69
2021/08/18 11:05:41;;;;;;;0.00;0.00;;;32.00;39.70;;;;;;5063512;28;20638;-68
2021/08/18 11:08:40;;;;;;;0.60;0.40;;;31.90;40.20;;;;;;5064453;28;20608;-68
2021/08/18 11:11:07;;;;;;;0.00;0.00;;;31.90;40.00;;;;;;5064854;28;20203;-68
2021/08/18 11:13:38;;;;;;;0.03;0.03;;;31.90;39.70;;;;;;5063990;28;20275;-68
2021/08/18 11:16:27;;;;;;;4.03;0.87;;;32.10;39.10;;;;;;5064544;28;20232;-68
2021/08/18 11:19:06;;;;;;;0.00;0.00;;;32.20;37.90;;;;;;5071680;28;20256;-68
2021/08/18 11:21:35;;;;;;;0.00;0.00;;;32.20;36.90;;;;;;5064834;28;20217;-68
2021/08/18 11:24:21;;;;;;;0.20;0.20;;;32.00;37.70;;;;;;5062514;28;20234;-68
2021/08/18 11:26:53;;;;;;;0.00;0.00;;;32.10;37.90;;;;;;5062310;28;20214;-68
2021/08/18 11:29:21;;;;;;;0.10;0.10;;;32.10;36.90;;;;;;5062498;28;20276;-68
2021/08/18 11:31:55;;;;;;;0.00;0.00;;;31.90;37.50;;;;;;5064168;28;20315;-68
2021/08/18 11:34:34;;;;;;;0.10;0.10;;;31.90;37.90;;;;;;5064330;28;20279;-68
2021/08/18 11:37:12;;;;;;;0.33;0.33;;;32.10;37.80;;;;;;5063258;28;20651;-68
2021/08/18 11:39:46;;;;;;;0.00;0.00;;;32.20;37.80;;;;;;5062390;28;20631;-69
2021/08/18 11:42:18;;;;;;;0.00;0.00;;;32.20;37.40;;;;;;5061385;28;20554;-69
2021/08/18 11:44:46;;;;;;;0.00;0.00;;;32.20;37.30;;;;;;5062590;28;20217;-69
2021/08/18 11:47:18;;;;;;;0.10;0.10;;;32.30;37.10;;;;;;5063678;28;20300;-68
2021/08/18 11:49:47;;;;;;;0.67;0.67;;;32.40;37.00;;;;;;5062070;28;20569;-68
2021/08/18 11:52:19;;;;;;;0.00;0.00;;;32.30;36.40;;;;;;5061622;28;20283;-68
2021/08/18 11:54:56;;;;;;;0.00;0.00;;;32.10;36.60;;;;;;5062140;28;20628;-68
2021/08/18 11:57:24;;;;;;;0.27;0.27;;;32.10;37.40;;;;;;5061466;28;20210;-68
2021/08/18 11:59:53;;;;;;;0.07;0.07;;;32.10;37.10;;;;;;5063692;28;20550;-68
2021/08/18 12:02:25;;;;;;;0.10;0.10;;;31.90;37.30;;;;;;5063464;28;20210;-68
2021/08/18 12:04:56;;;;;;;0.00;0.00;;;31.90;37.10;;;;;;5061892;28;20261;-68
2021/08/18 12:07:28;;;;;;;0.00;0.00;;;31.70;37.50;;;;;;5061331;28;20224;-68
2021/08/18 12:10:23;;;;;;;0.10;0.10;;;31.80;37.50;;;;;;5061593;28;20558;-68
2021/08/18 12:13:05;;;;;;;0.00;0.00;;;31.90;37.20;;;;;;5064943;28;20403;-68
2021/08/18 12:15:42;;;;;;;0.10;0.10;;;32.20;36.90;;;;;;5061987;28;20214;-68
2021/08/18 12:18:28;;;;;;;0.10;0.10;;;32.20;36.60;;;;;;5061096;28;20659;-68
2021/08/18 12:21:17;;;;;;;0.00;0.00;;;32.00;36.90;;;;;;5060986;28;20214;-68
2021/08/18 12:23:46;;;;;;;0.03;0.03;;;31.80;36.40;;;;;;5077651;28;20431;-68
2021/08/18 12:26:30;;;;;;;0.10;0.10;;;31.70;36.90;;;;;;5060815;28;20214;-68
2021/08/18 12:28:59;;;;;;;0.00;0.00;;;31.60;36.70;;;;;;5062067;28;20221;-68
2021/08/18 12:31:47;;;;;;;0.13;0.13;;;31.50;36.90;;;;;;5059660;28;20294;-68
2021/08/18 12:34:14;;;;;;;0.00;0.00;;;31.50;37.50;;;;;;5061128;28;20222;-68
2021/08/18 12:36:42;;;;;;;0.00;0.00;;;31.50;37.10;;;;;;5061634;28;20696;-68
2021/08/18 12:39:09;;;;;;;0.00;0.00;;;31.60;37.50;;;;;;5063550;28;20217;-68
2021/08/18 12:41:37;;;;;;;0.00;0.00;;;31.60;36.90;;;;;;5064035;28;20218;-68
2021/08/18 12:44:14;;;;;;;0.20;0.20;;;31.40;37.20;;;;;;5067963;28;20671;-68
2021/08/18 12:46:43;;;;;;;0.00;0.00;;;31.40;37.30;;;;;;5066685;28;20218;-68
2021/08/18 12:49:29;;;;;;;0.20;0.20;;;31.40;37.40;;;;;;5060770;28;20213;-68
2021/08/18 12:51:58;;;;;;;0.00;0.00;;;31.40;37.70;;;;;;5062787;28;20213;-68
2021/08/18 12:54:26;;;;;;;0.00;0.00;;;31.30;37.80;;;;;;5060786;28;20632;-69
2021/08/18 12:56:54;;;;;;;0.00;0.00;;;31.30;38.00;;;;;;5061172;28;20222;-68
2021/08/18 12:59:21;;;;;;;0.00;0.00;;;31.30;37.70;;;;;;5063268;28;20255;-68